CES5127 ZSSS-ZBAA
Flight info
| Callsign | CES5127 |
|---|---|
| Flight time | 1h 33m |
| Altitude | 36100 |
| Route | K0891S1100 DCT POMOK G330 PIMOL A593 XUTGU/K0882S1160 A593 DALIM W157 BEKDO/K0883S1130 W157 AVBOX AVBOX7X |
| Aircraft | A346/H-SDE2E3FGHIJ3J4J5M1RWXY/LB1D1 |
Departure
| Time | 2026-05-07 07:30 |
|---|---|
| Airport | Shanghai Hongqiao International Airport (ZSSS) |
Arrival
| Time | 2026-05-07 09:03 |
|---|---|
| Airport | Beijing Capital International Airport (ZBAA) |
| Time | Latitude | Longitude | Altitude | Speed | Heading |
|---|---|---|---|---|---|
| 2026-05-07 06:48 | 31.19462 | 121.34061 | 27 ft | 0 kts | 87° |
| 2026-05-07 07:19 | 31.19462 | 121.34040 | 27 ft | 4 kts | 87° |
| 2026-05-07 07:19 | 31.19461 | 121.34015 | 26 ft | 4 kts | 101° |
| 2026-05-07 07:19 | 31.19469 | 121.33994 | 26 ft | 4 kts | 136° |
| 2026-05-07 07:19 | 31.19486 | 121.33984 | 26 ft | 4 kts | 171° |
| 2026-05-07 07:20 | 31.19513 | 121.33982 | 27 ft | 4 kts | 178° |
| 2026-05-07 07:20 | 31.19528 | 121.33981 | 26 ft | 1 kts | 177° |
| 2026-05-07 07:20 | 31.19529 | 121.33981 | 26 ft | 0 kts | 177° |
| 2026-05-07 07:23 | 31.19521 | 121.33982 | 27 ft | 3 kts | 177° |
| 2026-05-07 07:23 | 31.19491 | 121.33983 | 27 ft | 6 kts | 177° |
| 2026-05-07 07:24 | 31.19440 | 121.33986 | 27 ft | 9 kts | 177° |
| 2026-05-07 07:24 | 31.19366 | 121.33990 | 27 ft | 12 kts | 177° |
| 2026-05-07 07:24 | 31.19273 | 121.33995 | 27 ft | 15 kts | 177° |
| 2026-05-07 07:24 | 31.19161 | 121.34002 | 27 ft | 18 kts | 177° |
| 2026-05-07 07:25 | 31.18916 | 121.34015 | 27 ft | 8 kts | 177° |
| 2026-05-07 07:25 | 31.18849 | 121.34019 | 26 ft | 11 kts | 177° |
| 2026-05-07 07:25 | 31.18764 | 121.34023 | 27 ft | 14 kts | 177° |
| 2026-05-07 07:26 | 31.18659 | 121.34029 | 27 ft | 17 kts | 177° |
| 2026-05-07 07:26 | 31.18537 | 121.34036 | 27 ft | 15 kts | 177° |
| 2026-05-07 07:26 | 31.18495 | 121.34038 | 27 ft | 1 kts | 177° |
| 2026-05-07 07:26 | 31.18478 | 121.34039 | 27 ft | 4 kts | 177° |
| 2026-05-07 07:27 | 31.18442 | 121.34036 | 27 ft | 6 kts | 209° |
| 2026-05-07 07:27 | 31.18419 | 121.33991 | 27 ft | 8 kts | 252° |
| 2026-05-07 07:27 | 31.18394 | 121.33921 | 27 ft | 10 kts | 243° |
| 2026-05-07 07:27 | 31.18372 | 121.33858 | 27 ft | 0 kts | 267° |
| 2026-05-07 07:28 | 31.18371 | 121.33847 | 27 ft | 4 kts | 265° |
| 2026-05-07 07:28 | 31.18364 | 121.33756 | 29 ft | 16 kts | 265° |
| 2026-05-07 07:28 | 31.18357 | 121.33611 | 27 ft | 18 kts | 266° |
| 2026-05-07 07:28 | 31.18351 | 121.33453 | 28 ft | 21 kts | 268° |
| 2026-05-07 07:29 | 31.18398 | 121.33329 | 27 ft | 16 kts | 340° |
| 2026-05-07 07:29 | 31.18465 | 121.33318 | 29 ft | 6 kts | 357° |
| 2026-05-07 07:29 | 31.18629 | 121.33308 | 29 ft | 57 kts | 356° |
| 2026-05-07 07:29 | 31.19283 | 121.33270 | 27 ft | 129 kts | 357° |
| 2026-05-07 07:30 | 31.20391 | 121.33214 | 50 ft | 184 kts | 356° |
| 2026-05-07 07:30 | 31.21750 | 121.33159 | 554 ft | 203 kts | 356° |
| 2026-05-07 07:30 | 31.23181 | 121.32963 | 1324 ft | 211 kts | 344° |
| 2026-05-07 07:30 | 31.24499 | 121.32230 | 2190 ft | 209 kts | 326° |
| 2026-05-07 07:31 | 31.25658 | 121.31165 | 2752 ft | 218 kts | 318° |
| 2026-05-07 07:31 | 31.26855 | 121.29914 | 2992 ft | 244 kts | 319° |
| 2026-05-07 07:31 | 31.28181 | 121.28595 | 2993 ft | 252 kts | 320° |
| 2026-05-07 07:31 | 31.29583 | 121.27281 | 3167 ft | 265 kts | 321° |
| 2026-05-07 07:32 | 31.31047 | 121.25953 | 4062 ft | 264 kts | 322° |
| 2026-05-07 07:32 | 31.32507 | 121.24662 | 5105 ft | 262 kts | 322° |
| 2026-05-07 07:32 | 31.33977 | 121.23375 | 6081 ft | 264 kts | 323° |
| 2026-05-07 07:32 | 31.35460 | 121.22088 | 6999 ft | 267 kts | 322° |
| 2026-05-07 07:33 | 31.36962 | 121.20785 | 7883 ft | 271 kts | 322° |
| 2026-05-07 07:33 | 31.38489 | 121.19459 | 8811 ft | 275 kts | 322° |
| 2026-05-07 07:33 | 31.40014 | 121.18084 | 9714 ft | 278 kts | 315° |
| 2026-05-07 07:33 | 31.41357 | 121.16484 | 10403 ft | 283 kts | 309° |
| 2026-05-07 07:34 | 31.42701 | 121.14696 | 11128 ft | 293 kts | 308° |
| 2026-05-07 07:34 | 31.44138 | 121.12936 | 11851 ft | 306 kts | 314° |
| 2026-05-07 07:34 | 31.45844 | 121.11400 | 12534 ft | 321 kts | 322° |
| 2026-05-07 07:34 | 31.47894 | 121.10081 | 13052 ft | 342 kts | 329° |
| 2026-05-07 07:35 | 31.50114 | 121.08868 | 13516 ft | 361 kts | 331° |
| 2026-05-07 07:35 | 31.52434 | 121.07640 | 13888 ft | 379 kts | 331° |
| 2026-05-07 07:35 | 31.54885 | 121.06347 | 14397 ft | 391 kts | 331° |
| 2026-05-07 07:35 | 31.57373 | 121.05037 | 15003 ft | 393 kts | 331° |
| 2026-05-07 07:36 | 31.59877 | 121.03714 | 15598 ft | 396 kts | 331° |
| 2026-05-07 07:36 | 31.62397 | 121.02378 | 16203 ft | 399 kts | 331° |
| 2026-05-07 07:36 | 31.64939 | 121.01027 | 16824 ft | 402 kts | 331° |
| 2026-05-07 07:36 | 31.67497 | 120.99665 | 17501 ft | 406 kts | 331° |
| 2026-05-07 07:37 | 31.70079 | 120.98291 | 18231 ft | 408 kts | 331° |
| 2026-05-07 07:37 | 31.72679 | 120.96905 | 18800 ft | 411 kts | 331° |
| 2026-05-07 07:37 | 31.75300 | 120.95506 | 19326 ft | 415 kts | 330° |
| 2026-05-07 07:37 | 31.77952 | 120.94091 | 19827 ft | 418 kts | 330° |
| 2026-05-07 07:38 | 31.80608 | 120.92672 | 20328 ft | 421 kts | 330° |
| 2026-05-07 07:38 | 31.83285 | 120.91241 | 20785 ft | 424 kts | 330° |
| 2026-05-07 07:38 | 31.85988 | 120.89795 | 21258 ft | 428 kts | 330° |
| 2026-05-07 07:38 | 31.88707 | 120.88340 | 21788 ft | 431 kts | 330° |
| 2026-05-07 07:39 | 31.91453 | 120.86869 | 22343 ft | 435 kts | 330° |
| 2026-05-07 07:39 | 31.94215 | 120.85388 | 22920 ft | 438 kts | 330° |
| 2026-05-07 07:39 | 31.97004 | 120.83891 | 23455 ft | 442 kts | 330° |
| 2026-05-07 07:39 | 31.99823 | 120.82378 | 23864 ft | 447 kts | 330° |
| 2026-05-07 07:40 | 32.02667 | 120.80846 | 24308 ft | 451 kts | 330° |
| 2026-05-07 07:40 | 32.05533 | 120.79303 | 24791 ft | 453 kts | 330° |
| 2026-05-07 07:40 | 32.08375 | 120.77772 | 25265 ft | 456 kts | 330° |
| 2026-05-07 07:40 | 32.11252 | 120.76180 | 25740 ft | 456 kts | 326° |
| 2026-05-07 07:41 | 32.13780 | 120.73985 | 26177 ft | 448 kts | 310° |
| 2026-05-07 07:41 | 32.15676 | 120.71114 | 26704 ft | 441 kts | 297° |
| 2026-05-07 07:41 | 32.16880 | 120.67804 | 27217 ft | 437 kts | 283° |
| 2026-05-07 07:41 | 32.17380 | 120.64266 | 27697 ft | 437 kts | 274° |
| 2026-05-07 07:42 | 32.17690 | 120.60668 | 28164 ft | 441 kts | 275° |
| 2026-05-07 07:42 | 32.18003 | 120.57052 | 28656 ft | 443 kts | 275° |
| 2026-05-07 07:42 | 32.18315 | 120.53428 | 29357 ft | 440 kts | 275° |
| 2026-05-07 07:42 | 32.18619 | 120.49844 | 30137 ft | 437 kts | 274° |
| 2026-05-07 07:43 | 32.18916 | 120.46324 | 30752 ft | 434 kts | 274° |
| 2026-05-07 07:43 | 32.19214 | 120.42758 | 31323 ft | 433 kts | 274° |
| 2026-05-07 07:43 | 32.19506 | 120.39242 | 31888 ft | 432 kts | 273° |
| 2026-05-07 07:43 | 32.19801 | 120.35677 | 32478 ft | 431 kts | 273° |
| 2026-05-07 07:44 | 32.20087 | 120.32170 | 33074 ft | 430 kts | 272° |
| 2026-05-07 07:44 | 32.20370 | 120.28684 | 33666 ft | 429 kts | 272° |
| 2026-05-07 07:44 | 32.20657 | 120.25156 | 34221 ft | 428 kts | 272° |
| 2026-05-07 07:44 | 32.20941 | 120.21644 | 34722 ft | 427 kts | 272° |
| 2026-05-07 07:45 | 32.21220 | 120.18184 | 35185 ft | 427 kts | 273° |
| 2026-05-07 07:45 | 32.21407 | 120.15864 | 35468 ft | 427 kts | 273° |
| 2026-05-07 07:45 | 32.21784 | 120.11205 | 35980 ft | 428 kts | 273° |
| 2026-05-07 07:46 | 32.22260 | 120.05290 | 36077 ft | 437 kts | 273° |
| 2026-05-07 07:46 | 32.22842 | 119.98105 | 36072 ft | 440 kts | 273° |
| 2026-05-07 07:47 | 32.23417 | 119.90901 | 36080 ft | 440 kts | 273° |
| 2026-05-07 07:47 | 32.24597 | 119.83793 | 36074 ft | 445 kts | 284° |
| 2026-05-07 07:48 | 32.27182 | 119.77065 | 36086 ft | 451 kts | 297° |
| 2026-05-07 07:48 | 32.31047 | 119.71185 | 36105 ft | 460 kts | 309° |
| 2026-05-07 07:49 | 32.36058 | 119.66317 | 36109 ft | 466 kts | 318° |
| 2026-05-07 07:49 | 32.41325 | 119.61830 | 36102 ft | 467 kts | 319° |
| 2026-05-07 07:50 | 32.46606 | 119.57344 | 36111 ft | 466 kts | 318° |
| 2026-05-07 07:50 | 32.51862 | 119.52813 | 36120 ft | 466 kts | 318° |
| 2026-05-07 07:51 | 32.57079 | 119.48297 | 36148 ft | 464 kts | 318° |
| 2026-05-07 07:51 | 32.62286 | 119.43790 | 36129 ft | 463 kts | 318° |
| 2026-05-07 07:52 | 32.67488 | 119.39280 | 36125 ft | 463 kts | 318° |
| 2026-05-07 07:52 | 32.72679 | 119.34774 | 36127 ft | 463 kts | 318° |
| 2026-05-07 07:53 | 32.77869 | 119.30262 | 36129 ft | 463 kts | 318° |
| 2026-05-07 07:53 | 32.83084 | 119.25723 | 36135 ft | 463 kts | 318° |
| 2026-05-07 07:54 | 32.88243 | 119.21228 | 36139 ft | 460 kts | 318° |
| 2026-05-07 07:54 | 32.93400 | 119.16725 | 36135 ft | 459 kts | 318° |
| 2026-05-07 07:55 | 32.98565 | 119.12255 | 36141 ft | 460 kts | 319° |
| 2026-05-07 07:55 | 33.03782 | 119.07769 | 36143 ft | 459 kts | 319° |
| 2026-05-07 07:56 | 33.08944 | 119.03320 | 36141 ft | 459 kts | 319° |
| 2026-05-07 07:56 | 33.14110 | 118.98859 | 36144 ft | 459 kts | 319° |
| 2026-05-07 07:57 | 33.19297 | 118.94372 | 36161 ft | 457 kts | 319° |
| 2026-05-07 07:57 | 33.24409 | 118.89919 | 36147 ft | 455 kts | 318° |
| 2026-05-07 07:58 | 33.29523 | 118.85445 | 36151 ft | 455 kts | 318° |
| 2026-05-07 07:58 | 33.34672 | 118.80978 | 36153 ft | 456 kts | 319° |
| 2026-05-07 07:59 | 33.39821 | 118.76521 | 36149 ft | 456 kts | 319° |
| 2026-05-07 07:59 | 33.44926 | 118.72092 | 36150 ft | 455 kts | 319° |
| 2026-05-07 08:00 | 33.50070 | 118.67630 | 36154 ft | 454 kts | 318° |
| 2026-05-07 08:00 | 33.55178 | 118.63202 | 36157 ft | 451 kts | 318° |
| 2026-05-07 08:01 | 33.60256 | 118.58791 | 36152 ft | 451 kts | 318° |
| 2026-05-07 08:01 | 33.65324 | 118.54383 | 36142 ft | 451 kts | 318° |
| 2026-05-07 08:02 | 33.70412 | 118.49952 | 36145 ft | 451 kts | 318° |
| 2026-05-07 08:02 | 33.75500 | 118.45515 | 36169 ft | 451 kts | 318° |
| 2026-05-07 08:03 | 33.80571 | 118.41091 | 36142 ft | 450 kts | 318° |
| 2026-05-07 08:03 | 33.85639 | 118.36655 | 36151 ft | 450 kts | 317° |
| 2026-05-07 08:04 | 33.90689 | 118.32232 | 36138 ft | 452 kts | 317° |
| 2026-05-07 08:04 | 33.95783 | 118.27760 | 36135 ft | 452 kts | 317° |
| 2026-05-07 08:05 | 34.00882 | 118.23306 | 36133 ft | 452 kts | 318° |
| 2026-05-07 08:05 | 34.05957 | 118.18896 | 36149 ft | 452 kts | 317° |
| 2026-05-07 08:06 | 34.11061 | 118.14443 | 36138 ft | 452 kts | 317° |
| 2026-05-07 08:06 | 34.16161 | 118.09995 | 36134 ft | 452 kts | 317° |
| 2026-05-07 08:07 | 34.21318 | 118.05612 | 36141 ft | 454 kts | 320° |
| 2026-05-07 08:07 | 34.26765 | 118.01752 | 36138 ft | 459 kts | 324° |
| 2026-05-07 08:08 | 34.32596 | 117.98482 | 36131 ft | 465 kts | 330° |
| 2026-05-07 08:08 | 34.38736 | 117.95892 | 36133 ft | 468 kts | 334° |
| 2026-05-07 08:09 | 34.45010 | 117.93636 | 36130 ft | 468 kts | 335° |
| 2026-05-07 08:09 | 34.51243 | 117.91417 | 36130 ft | 468 kts | 335° |
| 2026-05-07 08:10 | 34.57496 | 117.89184 | 36137 ft | 468 kts | 335° |
| 2026-05-07 08:10 | 34.63705 | 117.86967 | 36142 ft | 466 kts | 334° |
| 2026-05-07 08:11 | 34.69940 | 117.84728 | 36137 ft | 466 kts | 334° |
| 2026-05-07 08:11 | 34.76158 | 117.82493 | 36143 ft | 466 kts | 334° |
| 2026-05-07 08:12 | 34.82392 | 117.80249 | 36141 ft | 466 kts | 334° |
| 2026-05-07 08:12 | 34.88546 | 117.78004 | 36159 ft | 462 kts | 333° |
| 2026-05-07 08:13 | 34.94693 | 117.75749 | 36152 ft | 461 kts | 333° |
| 2026-05-07 08:13 | 35.00845 | 117.73494 | 36152 ft | 461 kts | 333° |
| 2026-05-07 08:14 | 35.06997 | 117.71240 | 36157 ft | 461 kts | 333° |
| 2026-05-07 08:14 | 35.13127 | 117.68993 | 36164 ft | 457 kts | 333° |
| 2026-05-07 08:15 | 35.19180 | 117.66767 | 36166 ft | 456 kts | 333° |
| 2026-05-07 08:15 | 35.25268 | 117.64525 | 36154 ft | 456 kts | 333° |
| 2026-05-07 08:16 | 35.31347 | 117.62283 | 36163 ft | 456 kts | 333° |
| 2026-05-07 08:16 | 35.37418 | 117.60050 | 36186 ft | 453 kts | 333° |
| 2026-05-07 08:17 | 35.43415 | 117.57836 | 36174 ft | 452 kts | 333° |
| 2026-05-07 08:17 | 35.49441 | 117.55602 | 36169 ft | 452 kts | 333° |
| 2026-05-07 08:18 | 35.55471 | 117.53367 | 36176 ft | 452 kts | 333° |
| 2026-05-07 08:18 | 35.61502 | 117.51129 | 36175 ft | 452 kts | 333° |
| 2026-05-07 08:19 | 35.67497 | 117.48900 | 36177 ft | 452 kts | 333° |
| 2026-05-07 08:19 | 35.73527 | 117.46657 | 36188 ft | 452 kts | 333° |
| 2026-05-07 08:20 | 35.79542 | 117.44415 | 36185 ft | 451 kts | 333° |
| 2026-05-07 08:20 | 35.85545 | 117.42178 | 36209 ft | 449 kts | 332° |
| 2026-05-07 08:21 | 35.91516 | 117.39947 | 36191 ft | 448 kts | 332° |
| 2026-05-07 08:21 | 35.97477 | 117.37712 | 36191 ft | 448 kts | 332° |
| 2026-05-07 08:22 | 36.03440 | 117.35486 | 36189 ft | 448 kts | 332° |
| 2026-05-07 08:22 | 36.09411 | 117.33283 | 36212 ft | 446 kts | 332° |
| 2026-05-07 08:23 | 36.15343 | 117.31095 | 36199 ft | 443 kts | 332° |
| 2026-05-07 08:23 | 36.21250 | 117.28904 | 36198 ft | 443 kts | 332° |
| 2026-05-07 08:24 | 36.27152 | 117.26713 | 36200 ft | 443 kts | 332° |
| 2026-05-07 08:24 | 36.33015 | 117.24539 | 36246 ft | 441 kts | 332° |
| 2026-05-07 08:25 | 36.38854 | 117.22370 | 36219 ft | 435 kts | 331° |
| 2026-05-07 08:25 | 36.44498 | 117.19841 | 36213 ft | 427 kts | 327° |
| 2026-05-07 08:26 | 36.52724 | 117.15584 | 36216 ft | 425 kts | 326° |
| 2026-05-07 08:26 | 36.58179 | 117.12747 | 36230 ft | 423 kts | 326° |
| 2026-05-07 08:27 | 36.63602 | 117.09919 | 36219 ft | 422 kts | 326° |
| 2026-05-07 08:27 | 36.69027 | 117.07084 | 36213 ft | 423 kts | 326° |
| 2026-05-07 08:28 | 36.74456 | 117.04244 | 36211 ft | 423 kts | 326° |
| 2026-05-07 08:28 | 36.79882 | 117.01402 | 36211 ft | 423 kts | 326° |
| 2026-05-07 08:29 | 36.85274 | 116.98577 | 36233 ft | 423 kts | 325° |
| 2026-05-07 08:29 | 36.90708 | 116.95722 | 36219 ft | 423 kts | 325° |
| 2026-05-07 08:30 | 37.06037 | 116.87653 | 36219 ft | 423 kts | 325° |
| 2026-05-07 08:30 | 37.27149 | 116.77298 | 36221 ft | 433 kts | 330° |
| 2026-05-07 08:31 | 37.36799 | 116.73660 | 36236 ft | 433 kts | 331° |
| 2026-05-07 08:31 | 37.48384 | 116.69277 | 36226 ft | 433 kts | 331° |
| 2026-05-07 08:32 | 37.59967 | 116.64874 | 36231 ft | 436 kts | 331° |
| 2026-05-07 08:32 | 37.66911 | 116.62230 | 36229 ft | 436 kts | 331° |
| 2026-05-07 08:33 | 37.72717 | 116.60016 | 36199 ft | 432 kts | 331° |
| 2026-05-07 08:33 | 37.75572 | 116.58935 | 35957 ft | 424 kts | 330° |
| 2026-05-07 08:33 | 37.78391 | 116.57863 | 35456 ft | 421 kts | 330° |
| 2026-05-07 08:34 | 37.81202 | 116.56775 | 34725 ft | 424 kts | 330° |
| 2026-05-07 08:34 | 37.84037 | 116.55680 | 33968 ft | 428 kts | 331° |
| 2026-05-07 08:34 | 37.84750 | 116.55406 | 33776 ft | 428 kts | 332° |
| 2026-05-07 08:34 | 37.86993 | 116.54548 | 33222 ft | 427 kts | 332° |
| 2026-05-07 08:35 | 37.89803 | 116.53462 | 32484 ft | 426 kts | 331° |
| 2026-05-07 08:35 | 37.92577 | 116.52210 | 31802 ft | 420 kts | 328° |
| 2026-05-07 08:35 | 37.95252 | 116.50790 | 31182 ft | 414 kts | 326° |
| 2026-05-07 08:35 | 37.97838 | 116.49203 | 30440 ft | 412 kts | 323° |
| 2026-05-07 08:36 | 38.00341 | 116.47444 | 29527 ft | 411 kts | 321° |
| 2026-05-07 08:36 | 38.02763 | 116.45518 | 28524 ft | 411 kts | 319° |
| 2026-05-07 08:36 | 38.05120 | 116.43437 | 27455 ft | 415 kts | 318° |
| 2026-05-07 08:36 | 38.07486 | 116.41300 | 26466 ft | 418 kts | 318° |
| 2026-05-07 08:37 | 38.09843 | 116.39160 | 25848 ft | 414 kts | 319° |
| 2026-05-07 08:37 | 38.12174 | 116.37034 | 25194 ft | 411 kts | 319° |
| 2026-05-07 08:37 | 38.14492 | 116.34908 | 24500 ft | 409 kts | 319° |
| 2026-05-07 08:37 | 38.16794 | 116.32791 | 23844 ft | 408 kts | 319° |
| 2026-05-07 08:38 | 38.19086 | 116.30681 | 23092 ft | 406 kts | 320° |
| 2026-05-07 08:38 | 38.21366 | 116.28578 | 22360 ft | 403 kts | 320° |
| 2026-05-07 08:38 | 38.23760 | 116.26725 | 21614 ft | 407 kts | 332° |
| 2026-05-07 08:38 | 38.26501 | 116.25746 | 20891 ft | 414 kts | 347° |
| 2026-05-07 08:39 | 38.29386 | 116.25723 | 20343 ft | 417 kts | 2° |
| 2026-05-07 08:39 | 38.32178 | 116.26522 | 19862 ft | 415 kts | 9° |
| 2026-05-07 08:39 | 38.34955 | 116.27468 | 19266 ft | 411 kts | 10° |
| 2026-05-07 08:39 | 38.37702 | 116.28415 | 18787 ft | 405 kts | 11° |
| 2026-05-07 08:40 | 38.40395 | 116.29348 | 18387 ft | 396 kts | 11° |
| 2026-05-07 08:40 | 38.43010 | 116.30257 | 18171 ft | 383 kts | 11° |
| 2026-05-07 08:40 | 38.45547 | 116.31137 | 18005 ft | 377 kts | 10° |
| 2026-05-07 08:40 | 38.48074 | 116.32008 | 17852 ft | 375 kts | 11° |
| 2026-05-07 08:41 | 38.50588 | 116.32873 | 17696 ft | 373 kts | 11° |
| 2026-05-07 08:41 | 38.53093 | 116.33737 | 17530 ft | 372 kts | 11° |
| 2026-05-07 08:41 | 38.55593 | 116.34601 | 17370 ft | 371 kts | 11° |
| 2026-05-07 08:41 | 38.58083 | 116.35462 | 17208 ft | 370 kts | 11° |
| 2026-05-07 08:42 | 38.60571 | 116.36324 | 17042 ft | 369 kts | 11° |
| 2026-05-07 08:42 | 38.63046 | 116.37181 | 16886 ft | 368 kts | 11° |
| 2026-05-07 08:42 | 38.65526 | 116.37985 | 16724 ft | 366 kts | 9° |
| 2026-05-07 08:42 | 38.68008 | 116.38698 | 16576 ft | 365 kts | 8° |
| 2026-05-07 08:43 | 38.70480 | 116.39394 | 16416 ft | 363 kts | 8° |
| 2026-05-07 08:43 | 38.72945 | 116.40088 | 16260 ft | 362 kts | 8° |
| 2026-05-07 08:43 | 38.75408 | 116.40783 | 16106 ft | 361 kts | 8° |
| 2026-05-07 08:43 | 38.77861 | 116.41475 | 15955 ft | 361 kts | 8° |
| 2026-05-07 08:44 | 38.80309 | 116.42167 | 15803 ft | 360 kts | 8° |
| 2026-05-07 08:44 | 38.82752 | 116.42859 | 15649 ft | 359 kts | 8° |
| 2026-05-07 08:44 | 38.85197 | 116.43551 | 15502 ft | 358 kts | 8° |
| 2026-05-07 08:44 | 38.87592 | 116.44229 | 15352 ft | 357 kts | 8° |
| 2026-05-07 08:45 | 38.90013 | 116.44916 | 15194 ft | 354 kts | 9° |
| 2026-05-07 08:45 | 38.92400 | 116.45596 | 14799 ft | 349 kts | 9° |
| 2026-05-07 08:45 | 38.94770 | 116.46269 | 14224 ft | 349 kts | 9° |
| 2026-05-07 08:45 | 38.97132 | 116.46940 | 13937 ft | 347 kts | 9° |
| 2026-05-07 08:46 | 38.99493 | 116.47611 | 13899 ft | 348 kts | 9° |
| 2026-05-07 08:46 | 39.01865 | 116.48287 | 13896 ft | 348 kts | 9° |
| 2026-05-07 08:46 | 39.04233 | 116.48962 | 13894 ft | 348 kts | 9° |
| 2026-05-07 08:46 | 39.06598 | 116.49637 | 13906 ft | 349 kts | 9° |
| 2026-05-07 08:47 | 39.08978 | 116.50309 | 13896 ft | 349 kts | 8° |
| 2026-05-07 08:47 | 39.11371 | 116.50670 | 13894 ft | 346 kts | 359° |
| 2026-05-07 08:47 | 39.13773 | 116.50567 | 13887 ft | 341 kts | 352° |
| 2026-05-07 08:47 | 39.16095 | 116.50237 | 13601 ft | 333 kts | 351° |
| 2026-05-07 08:48 | 39.18401 | 116.49872 | 12972 ft | 333 kts | 351° |
| 2026-05-07 08:48 | 39.20693 | 116.49505 | 12440 ft | 331 kts | 351° |
| 2026-05-07 08:48 | 39.22968 | 116.49145 | 11925 ft | 328 kts | 351° |
| 2026-05-07 08:48 | 39.25227 | 116.48789 | 11399 ft | 326 kts | 351° |
| 2026-05-07 08:49 | 39.27473 | 116.48437 | 10890 ft | 324 kts | 352° |
| 2026-05-07 08:49 | 39.29678 | 116.48092 | 10374 ft | 323 kts | 352° |
| 2026-05-07 08:49 | 39.31935 | 116.47740 | 9849 ft | 321 kts | 352° |
| 2026-05-07 08:49 | 39.34118 | 116.47401 | 9293 ft | 320 kts | 352° |
| 2026-05-07 08:50 | 39.36329 | 116.47058 | 8729 ft | 319 kts | 352° |
| 2026-05-07 08:50 | 39.38535 | 116.46715 | 8171 ft | 319 kts | 352° |
| 2026-05-07 08:50 | 39.40739 | 116.46372 | 7911 ft | 319 kts | 352° |
| 2026-05-07 08:50 | 39.42954 | 116.46026 | 7907 ft | 321 kts | 352° |
| 2026-05-07 08:51 | 39.45171 | 116.45679 | 7905 ft | 321 kts | 352° |
| 2026-05-07 08:51 | 39.47402 | 116.45529 | 7871 ft | 324 kts | 6° |
| 2026-05-07 08:51 | 39.49500 | 116.46614 | 7880 ft | 330 kts | 32° |
| 2026-05-07 08:51 | 39.51286 | 116.48372 | 7856 ft | 316 kts | 34° |
| 2026-05-07 08:52 | 39.53003 | 116.50070 | 7484 ft | 304 kts | 34° |
| 2026-05-07 08:52 | 39.54655 | 116.51679 | 7088 ft | 288 kts | 34° |
| 2026-05-07 08:52 | 39.56231 | 116.53200 | 6564 ft | 279 kts | 34° |
| 2026-05-07 08:52 | 39.57784 | 116.54687 | 5896 ft | 275 kts | 34° |
| 2026-05-07 08:53 | 39.59296 | 116.56132 | 5269 ft | 270 kts | 33° |
| 2026-05-07 08:53 | 39.60776 | 116.57547 | 4944 ft | 256 kts | 34° |
| 2026-05-07 08:53 | 39.62141 | 116.58855 | 4891 ft | 233 kts | 34° |
| 2026-05-07 08:53 | 39.63435 | 116.60093 | 4893 ft | 230 kts | 33° |
| 2026-05-07 08:54 | 39.64729 | 116.61330 | 4903 ft | 229 kts | 33° |
| 2026-05-07 08:54 | 39.66036 | 116.62460 | 4873 ft | 218 kts | 19° |
| 2026-05-07 08:54 | 39.67444 | 116.63039 | 4973 ft | 210 kts | 11° |
| 2026-05-07 08:54 | 39.68877 | 116.63295 | 4962 ft | 204 kts | 0° |
| 2026-05-07 08:55 | 39.70246 | 116.63246 | 4909 ft | 195 kts | 354° |
| 2026-05-07 08:55 | 39.71595 | 116.63076 | 4890 ft | 193 kts | 352° |
| 2026-05-07 08:55 | 39.72917 | 116.62880 | 4516 ft | 192 kts | 352° |
| 2026-05-07 08:55 | 39.74241 | 116.62675 | 4110 ft | 190 kts | 352° |
| 2026-05-07 08:56 | 39.75550 | 116.62470 | 3718 ft | 188 kts | 352° |
| 2026-05-07 08:56 | 39.76847 | 116.62266 | 3370 ft | 187 kts | 351° |
| 2026-05-07 08:56 | 39.78129 | 116.62063 | 3019 ft | 185 kts | 351° |
| 2026-05-07 08:56 | 39.79389 | 116.61862 | 2677 ft | 185 kts | 351° |
| 2026-05-07 08:57 | 39.80668 | 116.61658 | 2320 ft | 185 kts | 351° |
| 2026-05-07 08:57 | 39.81940 | 116.61455 | 2016 ft | 181 kts | 352° |
| 2026-05-07 08:57 | 39.83170 | 116.61258 | 2015 ft | 171 kts | 352° |
| 2026-05-07 08:57 | 39.84315 | 116.61076 | 1986 ft | 165 kts | 351° |
| 2026-05-07 08:58 | 39.85456 | 116.60894 | 1977 ft | 164 kts | 351° |
| 2026-05-07 08:58 | 39.86573 | 116.60715 | 1960 ft | 157 kts | 352° |
| 2026-05-07 08:58 | 39.87649 | 116.60545 | 1955 ft | 156 kts | 351° |
| 2026-05-07 08:58 | 39.88716 | 116.60375 | 1963 ft | 153 kts | 351° |
| 2026-05-07 08:59 | 39.89780 | 116.60206 | 2003 ft | 155 kts | 352° |
| 2026-05-07 08:59 | 39.90847 | 116.60037 | 2001 ft | 152 kts | 351° |
| 2026-05-07 08:59 | 39.91891 | 116.59871 | 1989 ft | 150 kts | 352° |
| 2026-05-07 08:59 | 39.92935 | 116.59706 | 1998 ft | 152 kts | 352° |
| 2026-05-07 09:00 | 39.93986 | 116.59539 | 1993 ft | 152 kts | 351° |
| 2026-05-07 09:00 | 39.95039 | 116.59371 | 1979 ft | 151 kts | 352° |
| 2026-05-07 09:00 | 39.96082 | 116.59206 | 1997 ft | 151 kts | 351° |
| 2026-05-07 09:00 | 39.97115 | 116.59043 | 1993 ft | 148 kts | 351° |
| 2026-05-07 09:01 | 39.98139 | 116.58881 | 1940 ft | 148 kts | 351° |
| 2026-05-07 09:01 | 39.99162 | 116.58719 | 1710 ft | 154 kts | 351° |
| 2026-05-07 09:01 | 40.00307 | 116.58536 | 1654 ft | 164 kts | 352° |
| 2026-05-07 09:01 | 40.01453 | 116.58361 | 1483 ft | 168 kts | 351° |
| 2026-05-07 09:02 | 40.02614 | 116.58191 | 1260 ft | 165 kts | 351° |
| 2026-05-07 09:02 | 40.03749 | 116.58027 | 903 ft | 163 kts | 352° |
| 2026-05-07 09:02 | 40.04842 | 116.57843 | 665 ft | 159 kts | 350° |
| 2026-05-07 09:02 | 40.05938 | 116.57652 | 477 ft | 161 kts | 350° |
| 2026-05-07 09:03 | 40.07050 | 116.57472 | 250 ft | 160 kts | 351° |
| 2026-05-07 09:03 | 40.08109 | 116.57314 | 138 ft | 142 kts | 351° |
| 2026-05-07 09:03 | 40.08948 | 116.57170 | 132 ft | 92 kts | 353° |
| 2026-05-07 09:03 | 40.09305 | 116.57106 | 132 ft | 0 kts | 352° |
| 2026-05-07 09:04 | 40.09346 | 116.57101 | 126 ft | 16 kts | 357° |
| 2026-05-07 09:04 | 40.09528 | 116.57118 | 130 ft | 28 kts | 13° |
| 2026-05-07 09:04 | 40.09674 | 116.57202 | 128 ft | 18 kts | 50° |
| 2026-05-07 09:04 | 40.09670 | 116.57269 | 127 ft | 5 kts | 149° |
| 2026-05-07 09:05 | 40.09639 | 116.57285 | 125 ft | 5 kts | 164° |
| 2026-05-07 09:05 | 40.09593 | 116.57298 | 133 ft | 9 kts | 173° |
| 2026-05-07 09:05 | 40.09481 | 116.57314 | 125 ft | 23 kts | 173° |
| 2026-05-07 09:05 | 40.09321 | 116.57341 | 125 ft | 22 kts | 172° |
| 2026-05-07 09:06 | 40.09166 | 116.57366 | 130 ft | 24 kts | 174° |
| 2026-05-07 09:06 | 40.08993 | 116.57390 | 130 ft | 26 kts | 173° |
| 2026-05-07 09:06 | 40.08803 | 116.57421 | 130 ft | 29 kts | 173° |
| 2026-05-07 09:06 | 40.08596 | 116.57452 | 131 ft | 31 kts | 173° |
| 2026-05-07 09:07 | 40.08385 | 116.57484 | 125 ft | 27 kts | 173° |
| 2026-05-07 09:07 | 40.08300 | 116.57571 | 133 ft | 14 kts | 75° |
| 2026-05-07 09:07 | 40.08311 | 116.57698 | 126 ft | 16 kts | 84° |
| 2026-05-07 09:07 | 40.08325 | 116.57863 | 130 ft | 20 kts | 83° |
| 2026-05-07 09:08 | 40.08344 | 116.58058 | 133 ft | 23 kts | 82° |
| 2026-05-07 09:08 | 40.08367 | 116.58282 | 127 ft | 26 kts | 82° |
| 2026-05-07 09:08 | 40.08387 | 116.58528 | 133 ft | 28 kts | 83° |
| 2026-05-07 09:08 | 40.08412 | 116.58794 | 126 ft | 30 kts | 83° |
| 2026-05-07 09:09 | 40.08437 | 116.59071 | 128 ft | 27 kts | 84° |
| 2026-05-07 09:09 | 40.08456 | 116.59289 | 130 ft | 19 kts | 82° |
| 2026-05-07 09:09 | 40.08465 | 116.59371 | 125 ft | 6 kts | 83° |
| 2026-05-07 09:09 | 40.08465 | 116.59374 | 125 ft | 0 kts | 83° |
| 2026-05-07 09:10 | 40.08467 | 116.59392 | 125 ft | 4 kts | 83° |
| 2026-05-07 09:10 | 40.08473 | 116.59463 | 133 ft | 12 kts | 83° |
| 2026-05-07 09:10 | 40.08485 | 116.59589 | 133 ft | 16 kts | 83° |
| 2026-05-07 09:10 | 40.08501 | 116.59752 | 126 ft | 20 kts | 83° |
| 2026-05-07 09:11 | 40.08502 | 116.59775 | 127 ft | 0 kts | 98° |
| 2026-05-07 09:11 | 40.08508 | 116.59838 | 130 ft | 13 kts | 82° |
| 2026-05-07 09:12 | 40.08466 | 116.59906 | 128 ft | 1 kts | 187° |
| 2026-05-07 09:12 | 40.08461 | 116.59906 | 130 ft | 2 kts | 185° |
| 2026-05-07 09:12 | 40.08415 | 116.59916 | 130 ft | 13 kts | 169° |
| 2026-05-07 09:12 | 40.08306 | 116.59933 | 131 ft | 18 kts | 174° |
| 2026-05-07 09:13 | 40.08153 | 116.59955 | 130 ft | 28 kts | 174° |
| 2026-05-07 09:13 | 40.07953 | 116.59986 | 130 ft | 30 kts | 172° |
| 2026-05-07 09:13 | 40.07738 | 116.60025 | 119 ft | 32 kts | 172° |
| 2026-05-07 09:13 | 40.07615 | 116.60132 | 127 ft | 19 kts | 115° |
| 2026-05-07 09:14 | 40.07536 | 116.60286 | 130 ft | 21 kts | 151° |
| 2026-05-07 09:14 | 40.07389 | 116.60342 | 130 ft | 23 kts | 173° |
| 2026-05-07 09:14 | 40.07218 | 116.60367 | 130 ft | 26 kts | 173° |
| 2026-05-07 09:14 | 40.07098 | 116.60385 | 131 ft | 13 kts | 173° |
| 2026-05-07 09:15 | 40.07009 | 116.60407 | 124 ft | 9 kts | 143° |
| 2026-05-07 09:15 | 40.07002 | 116.60451 | 127 ft | 6 kts | 83° |
| 2026-05-07 09:15 | 40.07008 | 116.60512 | 126 ft | 4 kts | 83° |
| 2026-05-07 09:15 | 40.07009 | 116.60519 | 125 ft | 0 kts | 83° |
| 2026-05-07 09:16 | 40.07009 | 116.60520 | 125 ft | 0 kts | 83° |
| 2026-05-07 09:31 | 0.00000 | 0.00000 | 1068 ft | 0 kts | 355° |